Time;durP1;ratioP1;P1;durP2;ratioP2;P2;SDS_P1;SDS_P2;PMS_P1;PMS_P2;Temp;Humidity;BMP_temperature;BMP_pressure;BME280_temperature;BME280_humidity;BME280_pressure;Samples;Min_cycle;Max_cycle;Signal;HPM_P1;HPM_P2
2022/11/28 00:03:56;;;;;;;62.40;28.00;;;;;;;1.95;89.12;99422.21;419754;1303;98575;-41
2022/11/28 00:14:04;;;;;;;91.10;34.00;;;;;;;1.94;89.15;99420.55;419891;1307;112012;-38
2022/11/28 00:24:11;;;;;;;72.60;30.80;;;;;;;1.89;89.08;99417.83;419691;1301;109479;-40
2022/11/28 00:34:21;;;;;;;66.10;28.50;;;;;;;1.84;88.92;99409.20;419852;1300;98027;-39
2022/11/28 00:44:28;;;;;;;30.10;17.90;;;;;;;1.89;88.71;99395.19;419683;1302;110814;-39
2022/11/28 00:54:36;;;;;;;33.80;16.50;;;;;;;2.01;88.62;99385.13;419660;1307;107300;-39
2022/11/28 01:04:42;;;;;;;49.40;21.40;;;;;;;2.08;88.66;99372.11;419678;1301;98401;-40
2022/11/28 01:24:55;;;;;;;43.10;23.00;;;;;;;1.93;88.49;99356.18;419767;1302;101564;-40
2022/11/28 01:35:02;;;;;;;46.40;23.40;;;;;;;1.78;88.44;99340.86;419669;1302;99275;-40
2022/11/28 01:45:16;;;;;;;35.90;19.80;;;;;;;1.72;88.38;99324.08;419665;1302;111910;-40
2022/11/28 01:55:24;;;;;;;28.60;16.80;;;;;;;1.79;88.28;99306.31;419645;1294;107710;-40
2022/11/28 02:05:31;;;;;;;34.20;18.30;;;;;;;1.84;88.30;99299.84;419696;1304;98401;-39
2022/11/28 02:15:42;;;;;;;39.30;19.60;;;;;;;1.82;88.42;99289.14;420618;1275;107766;-40
2022/11/28 02:26:22;;;;;;;36.00;18.80;;;;;;;1.75;88.36;99277.36;419652;1294;98048;-39
2022/11/28 02:36:33;;;;;;;36.20;18.40;;;;;;;1.63;88.36;99270.98;419835;1302;110907;-38
2022/11/28 02:46:37;;;;;;;38.60;19.50;;;;;;;1.54;88.41;99269.12;419851;1302;107751;-38
2022/11/28 02:56:49;;;;;;;27.30;15.30;;;;;;;1.58;88.42;99266.08;419923;1294;99252;-41
2022/11/28 03:17:01;;;;;;;35.50;16.40;;;;;;;1.83;88.39;99246.41;419856;1302;98417;-40
2022/11/28 03:27:09;;;;;;;37.70;19.20;;;;;;;1.83;88.41;99231.81;419897;1302;112324;-38
2022/11/28 03:37:20;;;;;;;36.00;19.60;;;;;;;1.77;88.38;99231.47;419813;1295;108512;-40
2022/11/28 03:47:31;;;;;;;35.60;19.20;;;;;;;1.66;88.42;99223.02;419855;1302;99351;-39
2022/11/28 03:57:43;;;;;;;29.70;17.60;;;;;;;1.65;88.29;99220.92;419719;1294;111451;-39
2022/11/28 04:07:58;;;;;;;27.20;17.30;;;;;;;1.70;88.34;99219.67;419702;1294;108522;-41
2022/11/28 04:18:10;;;;;;;34.10;19.00;;;;;;;1.75;88.38;99211.49;419658;1296;99267;-39
2022/11/28 04:28:20;;;;;;;45.10;24.50;;;;;;;1.76;88.57;99210.02;419710;1304;107641;-39
2022/11/28 04:38:31;;;;;;;44.30;23.10;;;;;;;1.71;88.54;99220.77;419621;1301;99183;-40
2022/11/28 04:48:39;;;;;;;44.10;24.60;;;;;;;1.65;88.59;99222.99;419667;1301;111525;-39
2022/11/28 04:58:49;;;;;;;33.30;21.40;;;;;;;1.71;88.73;99220.27;419612;1304;108544;-38
2022/11/28 05:08:57;;;;;;;27.30;15.10;;;;;;;1.81;88.62;99219.16;419553;1304;99251;-39
2022/11/28 05:19:04;;;;;;;32.90;17.70;;;;;;;1.93;88.54;99227.32;419550;1291;112156;-42
2022/11/28 05:29:12;;;;;;;47.40;22.90;;;;;;;2.00;88.80;99228.83;419620;1303;106998;-39
2022/11/28 05:39:19;;;;;;;48.30;22.00;;;;;;;1.91;88.80;99229.64;419520;1293;99233;-40
2022/11/28 05:49:27;;;;;;;52.60;27.30;;;;;;;1.84;88.71;99223.55;419591;1301;106400;-40
2022/11/28 05:59:35;;;;;;;37.30;21.90;;;;;;;1.71;88.32;99223.35;419522;1302;99262;-39
2022/11/28 06:09:43;;;;;;;35.10;20.70;;;;;;;1.81;88.68;99214.67;419701;1295;111242;-39
2022/11/28 06:29:57;;;;;;;64.40;31.90;;;;;;;1.95;88.49;99200.17;419888;1302;99256;-40
2022/11/28 06:40:05;;;;;;;56.40;30.30;;;;;;;1.82;88.57;99200.88;419699;1291;112367;-40
2022/11/28 06:50:10;;;;;;;54.90;32.00;;;;;;;1.75;88.69;99206.27;419815;1302;107633;-39
2022/11/28 07:00:17;;;;;;;62.00;30.20;;;;;;;1.77;88.64;99207.46;419822;1303;99361;-40
2022/11/28 07:10:25;;;;;;;36.30;21.00;;;;;;;1.88;88.69;99205.95;419763;1302;108786;-40
2022/11/28 07:20:33;;;;;;;49.60;26.50;;;;;;;2.03;88.68;99198.96;419865;1295;99271;-39
2022/11/28 07:30:40;;;;;;;73.20;32.80;;;;;;;2.03;88.67;99195.54;419703;1293;113113;-40
2022/11/28 07:40:49;;;;;;;74.30;35.70;;;;;;;2.02;88.78;99186.96;419850;1302;108436;-39
2022/11/28 07:50:56;;;;;;;57.60;28.80;;;;;;;1.98;88.70;99186.02;419728;1302;99262;-40
2022/11/28 08:01:08;;;;;;;43.60;26.00;;;;;;;2.04;88.51;99190.16;419704;1304;112102;-39
2022/11/28 08:11:16;;;;;;;55.80;26.40;;;;;;;2.17;88.56;99176.13;419513;1294;108367;-39
2022/11/28 08:21:26;;;;;;;58.80;31.10;;;;;;;2.23;88.73;99162.30;419663;1302;99291;-40
2022/11/28 08:31:35;;;;;;;66.50;34.40;;;;;;;2.20;88.68;99149.42;419685;1303;110995;-40
2022/11/28 08:41:43;;;;;;;42.20;23.70;;;;;;;2.27;88.57;99153.84;419412;1304;108249;-41
2022/11/28 08:51:51;;;;;;;45.00;24.10;;;;;;;2.40;88.51;99157.64;419510;1293;98349;-39
2022/11/28 09:01:58;;;;;;;55.00;26.20;;;;;;;2.54;88.61;99152.65;419484;1284;112239;-40
2022/11/28 09:12:05;;;;;;;57.00;33.10;;;;;;;2.70;88.78;99148.12;419354;1301;108679;-39
2022/11/28 09:22:12;;;;;;;73.20;37.10;;;;;;;2.79;88.68;99138.95;419443;1304;99249;-41
2022/11/28 09:32:20;;;;;;;43.90;25.60;;;;;;;2.86;88.49;99122.20;419225;1301;112632;-39
2022/11/28 09:42:25;;;;;;;40.10;24.40;;;;;;;3.00;88.26;99118.68;419417;1295;107416;-40
2022/11/28 09:52:32;;;;;;;56.50;28.50;;;;;;;3.12;88.17;99113.59;419378;1302;98838;-38
2022/11/28 10:02:42;;;;;;;59.90;32.60;;;;;;;3.15;88.18;99102.14;419542;1304;107732;-39
2022/11/28 10:12:48;;;;;;;64.20;34.10;;;;;;;3.13;88.08;99090.13;419452;1298;99216;-40
2022/11/28 10:22:56;;;;;;;40.20;23.70;;;;;;;3.24;87.92;99081.50;419650;1304;111626;-39
2022/11/28 10:33:15;;;;;;;47.40;26.70;;;;;;;3.39;87.77;99074.98;419583;1294;108748;-39
2022/11/28 10:43:23;;;;;;;;;;;;;;;3.53;87.85;99061.30;419559;1297;99223;-39
2022/11/28 10:53:32;;;;;;;59.70;31.80;;;;;;;3.56;87.82;99054.06;419532;1295;111333;-39
2022/11/28 11:14:02;;;;;;;43.60;25.10;;;;;;;3.73;87.32;99042.36;419452;1304;434013;-39
2022/11/28 11:24:18;;;;;;;62.60;35.00;;;;;;;3.82;87.56;99039.79;419889;1295;106885;-40
2022/11/28 11:34:26;;;;;;;63.60;34.10;;;;;;;3.83;87.31;99039.45;419906;1305;98004;-38
2022/11/28 11:44:33;;;;;;;38.80;22.90;;;;;;;3.89;87.25;99035.72;419709;1300;112115;-40
2022/11/28 11:54:52;;;;;;;40.30;22.30;;;;;;;4.01;87.07;99032.31;419803;1295;109453;-38
2022/11/28 12:15:13;;;;;;;61.90;33.80;;;;;;;4.15;87.20;99024.08;419835;1301;107472;-39
2022/11/28 12:25:18;;;;;;;40.80;23.60;;;;;;;4.13;86.80;99012.41;419703;1291;99223;-42
2022/11/28 12:35:24;;;;;;;43.70;24.30;;;;;;;4.23;86.84;99012.96;419553;1295;112676;-39
2022/11/28 12:45:35;;;;;;;54.20;28.30;;;;;;;4.31;86.97;99006.25;419532;1303;108465;-40
2022/11/28 12:55:49;;;;;;;60.50;28.10;;;;;;;4.32;86.85;99001.82;419559;1302;98881;-38
2022/11/28 13:06:00;;;;;;;56.90;27.70;;;;;;;4.30;86.78;98996.28;419635;1304;111319;-39
2022/11/28 13:16:05;;;;;;;32.00;20.70;;;;;;;4.28;86.57;98995.13;419701;1295;108046;-40
2022/11/28 13:26:14;;;;;;;33.50;21.20;;;;;;;4.32;86.41;98986.98;419748;1302;98039;-39
2022/11/28 13:36:28;;;;;;;41.70;23.80;;;;;;;4.26;86.57;98985.02;419613;1304;107630;-40
2022/11/28 13:46:55;;;;;;;29.70;18.30;;;;;;;4.08;86.26;98982.66;419811;1300;98397;-39
2022/11/28 13:57:04;;;;;;;32.40;19.60;;;;;;;3.93;85.95;98982.61;419644;1302;111290;-40
2022/11/28 14:07:19;;;;;;;40.60;23.10;;;;;;;3.84;86.06;98980.30;419609;1302;107071;-40
2022/11/28 14:17:32;;;;;;;41.90;23.30;;;;;;;3.70;86.12;98982.52;419712;1292;98484;-40
2022/11/28 14:27:47;;;;;;;46.80;25.30;;;;;;;3.52;86.13;98980.98;419739;1305;107915;-40
2022/11/28 14:37:56;;;;;;;38.20;21.70;;;;;;;3.37;86.05;98978.48;419768;1305;99236;-39
2022/11/28 14:48:08;;;;;;;31.40;20.40;;;;;;;3.28;86.06;98980.77;419907;1301;111193;-39
2022/11/28 15:08:51;;;;;;;57.10;27.40;;;;;;;2.87;86.01;98980.53;419820;1304;99051;-39
2022/11/28 15:29:17;;;;;;;32.50;21.10;;;;;;;2.28;86.14;98982.21;419758;1303;98831;-39
2022/11/28 15:39:30;;;;;;;31.20;20.70;;;;;;;2.08;86.27;98983.34;419817;1300;110761;-40
2022/11/28 15:49:39;;;;;;;38.80;20.80;;;;;;;1.92;86.36;98981.48;419747;1301;107387;-40
2022/11/28 15:59:47;;;;;;;38.60;22.50;;;;;;;1.75;86.44;98979.83;419806;1296;99115;-40
2022/11/28 16:09:56;;;;;;;40.60;21.90;;;;;;;1.62;86.68;98982.63;419788;1301;107934;-39
2022/11/28 16:30:28;;;;;;;82.20;37.10;;;;;;;1.29;86.91;98983.18;419732;1302;110400;-40
2022/11/28 16:40:36;;;;;;;59.40;30.10;;;;;;;1.16;87.04;98983.27;419691;1302;107979;-40
2022/11/28 16:50:42;;;;;;;46.60;25.00;;;;;;;1.15;86.95;98983.58;419764;1294;99236;-40
2022/11/28 17:00:50;;;;;;;36.10;22.60;;;;;;;1.16;87.09;98992.95;419704;1295;111438;-40
2022/11/28 17:10:58;;;;;;;46.80;24.60;;;;;;;1.15;87.18;98995.33;419681;1300;107761;-39
2022/11/28 17:21:05;;;;;;;71.70;33.20;;;;;;;1.11;87.25;98989.69;419669;1305;98724;-39
2022/11/28 17:31:11;;;;;;;73.70;37.90;;;;;;;0.96;87.24;98994.13;419702;1302;107425;-39
2022/11/28 17:51:25;;;;;;;71.00;35.00;;;;;;;0.57;87.43;98995.02;419687;1304;110936;-38
2022/11/28 18:01:32;;;;;;;75.30;39.00;;;;;;;0.44;87.22;98995.80;419670;1300;108604;-42
2022/11/28 18:11:39;;;;;;;54.70;30.90;;;;;;;0.44;87.37;98989.39;419749;1299;99190;-39
2022/11/28 18:21:46;;;;;;;94.00;45.20;;;;;;;0.47;87.50;98981.83;419717;1298;107957;-39
2022/11/28 18:31:54;;;;;;;67.80;37.30;;;;;;;0.51;87.61;98984.89;419779;1286;98430;-39
2022/11/28 18:42:02;;;;;;;87.70;44.20;;;;;;;0.49;87.68;98981.20;419818;1295;112995;-40
2022/11/28 19:02:16;;;;;;;83.80;42.40;;;;;;;0.11;87.58;98987.25;419710;1300;99236;-39
2022/11/28 19:12:22;;;;;;;80.00;38.90;;;;;;;-0.06;87.89;98986.01;419824;1304;112060;-40
2022/11/28 19:22:30;;;;;;;62.90;34.40;;;;;;;-0.15;87.77;98979.11;419890;1302;108546;-40
2022/11/28 19:32:37;;;;;;;61.00;33.40;;;;;;;-0.13;87.79;98980.28;419652;1294;99256;-39
2022/11/28 19:42:44;;;;;;;55.10;26.60;;;;;;;-0.08;87.88;98983.06;419797;1303;112577;-40
2022/11/28 19:52:51;;;;;;;66.00;32.90;;;;;;;0.03;87.95;98982.30;419825;1294;107290;-41
2022/11/28 20:02:57;;;;;;;85.80;39.60;;;;;;;0.04;88.05;98983.97;419716;1303;99256;-40
2022/11/28 20:13:05;;;;;;;69.40;35.50;;;;;;;-0.08;88.03;98990.52;419670;1304;111766;-39
2022/11/28 20:23:12;;;;;;;73.10;38.00;;;;;;;-0.34;87.98;98994.33;419659;1295;108495;-41
2022/11/28 20:33:19;;;;;;;58.60;33.50;;;;;;;-0.54;88.10;98999.46;419750;1301;98775;-38
2022/11/28 20:43:28;;;;;;;52.10;32.70;;;;;;;-0.63;88.20;99000.58;419623;1287;108613;-40
2022/11/28 21:03:43;;;;;;;49.40;27.70;;;;;;;-0.62;88.15;99000.29;419703;1304;110744;-40
2022/11/28 21:13:51;;;;;;;53.20;29.80;;;;;;;-0.60;88.11;99002.38;419720;1295;107818;-40
2022/11/28 21:24:01;;;;;;;67.90;34.10;;;;;;;-0.66;88.23;99006.41;419608;1300;99185;-39
2022/11/28 21:34:11;;;;;;;60.30;31.10;;;;;;;-0.79;88.44;99008.20;419768;1295;110436;-39
2022/11/28 21:44:19;;;;;;;58.80;32.50;;;;;;;-0.92;88.47;99002.41;419786;1294;107306;-40
2022/11/28 21:54:26;;;;;;;66.60;35.80;;;;;;;-0.97;88.35;99003.92;419799;1302;98029;-41
2022/11/28 22:04:34;;;;;;;63.80;37.10;;;;;;;-0.94;88.60;99009.20;419701;1302;107432;-41
2022/11/28 22:14:41;;;;;;;91.80;40.60;;;;;;;-0.89;88.54;99010.26;419665;1295;99275;-40
2022/11/28 22:24:48;;;;;;;60.90;33.20;;;;;;;-0.86;88.55;99005.48;419686;1289;111134;-40
2022/11/28 22:34:56;;;;;;;84.30;40.90;;;;;;;-0.90;88.64;99007.62;419762;1295;108293;-39
2022/11/28 22:45:02;;;;;;;98.40;45.10;;;;;;;-1.03;88.74;99001.61;419719;1300;99188;-39
2022/11/28 22:55:08;;;;;;;83.60;40.40;;;;;;;-1.20;88.67;99004.41;419771;1302;112291;-39
2022/11/28 23:05:15;;;;;;;91.20;42.90;;;;;;;-1.36;88.67;99010.89;419628;1296;107532;-41
2022/11/28 23:15:22;;;;;;;81.00;44.30;;;;;;;-1.44;88.63;99014.14;419587;1303;231128;-40
2022/11/28 23:25:29;;;;;;;78.40;46.30;;;;;;;-1.43;88.67;99004.71;420017;1294;112967;-40
2022/11/28 23:35:36;;;;;;;83.40;41.80;;;;;;;-1.41;88.59;99002.64;419711;1304;108513;-39
2022/11/28 23:45:44;;;;;;;65.70;36.60;;;;;;;-1.43;88.86;98999.70;419755;1295;99348;-40
2022/11/28 23:55:51;;;;;;;64.10;34.40;;;;;;;-1.46;88.63;98996.65;419718;1303;108394;-40
